Time;durP1;ratioP1;P1;durP2;ratioP2;P2;SDS_P1;SDS_P2;PMS_P1;PMS_P2;Temp;Humidity;BMP_temperature;BMP_pressure;BME280_temperature;BME280_humidity;BME280_pressure;Samples;Min_cycle;Max_cycle;Signal;HPM_P1;HPM_P2
2021/05/03 00:02:36;;;;;;;4.93;2.15;;;;;;;-148.56;100.00;61375.16;4955278;28;20077;-30
2021/05/03 00:06:00;;;;;;;4.65;2.15;;;;;;;-148.56;100.00;61375.16;4965956;28;20040;-30
2021/05/03 00:09:24;;;;;;;3.55;1.98;;;;;;;-148.56;100.00;61375.16;4950924;28;20035;-29
2021/05/03 00:12:48;;;;;;;4.35;1.77;;;;;;;-148.56;100.00;61375.16;4967229;28;20096;-27
2021/05/03 00:16:12;;;;;;;4.47;2.03;;;;;;;-148.56;100.00;61375.16;4950465;28;20050;-30
2021/05/03 00:19:36;;;;;;;4.70;1.80;;;;;;;-148.56;100.00;61375.16;4954958;28;20057;-28
2021/05/03 00:23:03;;;;;;;3.05;1.75;;;;;;;-148.56;100.00;61375.16;4963460;28;20042;-29
2021/05/03 00:26:27;;;;;;;3.28;1.65;;;;;;;-148.56;100.00;61375.16;4951488;28;20027;-25
2021/05/03 00:29:50;;;;;;;6.05;2.00;;;;;;;-148.56;100.00;61375.16;4952032;28;20030;-28
2021/05/03 00:33:14;;;;;;;2.72;1.88;;;;;;;-148.56;100.00;61375.16;4954557;28;20504;-31
2021/05/03 00:36:38;;;;;;;2.28;1.33;;;;;;;-148.56;100.00;61375.16;4958211;28;20073;-28
2021/05/03 00:40:03;;;;;;;4.28;1.77;;;;;;;-148.56;100.00;61375.16;4952142;28;20503;-29
2021/05/03 00:43:27;;;;;;;4.75;2.00;;;;;;;-148.56;100.00;61375.16;4960416;28;20117;-26
2021/05/03 00:46:52;;;;;;;4.40;1.77;;;;;;;-148.56;100.00;61375.16;4965787;28;20041;-28
2021/05/03 00:50:17;;;;;;;5.32;2.00;;;;;;;-148.56;100.00;61375.16;4960519;28;20034;-29
2021/05/03 00:53:41;;;;;;;3.55;1.60;;;;;;;-148.56;100.00;61375.16;4956176;28;20030;-26
2021/05/03 00:57:06;;;;;;;2.70;1.58;;;;;;;-148.56;100.00;61375.16;4950439;28;20034;-27
2021/05/03 01:00:30;;;;;;;4.45;1.70;;;;;;;-148.56;100.00;61375.16;4963138;28;20121;-28
2021/05/03 01:03:54;;;;;;;2.85;1.52;;;;;;;-148.56;100.00;61375.16;4960941;28;20030;-32
2021/05/03 01:07:18;;;;;;;3.05;1.75;;;;;;;-148.56;100.00;61375.16;4951093;28;20065;-27
2021/05/03 01:10:42;;;;;;;3.83;1.77;;;;;;;-148.56;100.00;61375.16;4962848;28;20035;-28
2021/05/03 01:14:05;;;;;;;1.95;1.30;;;;;;;-148.56;100.00;61375.16;4954402;28;20085;-28
2021/05/03 01:17:32;;;;;;;2.60;1.50;;;;;;;-148.56;100.00;61375.16;4953058;28;20035;-30
2021/05/03 01:20:56;;;;;;;3.42;1.67;;;;;;;-148.56;100.00;61375.16;4955045;28;20062;-30
2021/05/03 01:24:20;;;;;;;3.08;1.65;;;;;;;-148.56;100.00;61375.16;4976434;28;20058;-32
2021/05/03 01:27:45;;;;;;;1.88;1.40;;;;;;;-148.56;100.00;61375.16;4965048;28;20469;-29
2021/05/03 01:31:11;;;;;;;2.15;1.52;;;;;;;-148.56;100.00;61375.16;4954710;28;20034;-30
2021/05/03 01:34:37;;;;;;;3.17;1.50;;;;;;;-148.56;100.00;61375.16;4974164;28;20068;-33
2021/05/03 01:38:01;;;;;;;1.88;1.33;;;;;;;-148.56;100.00;61375.16;4960207;28;20103;-30
2021/05/03 01:41:25;;;;;;;2.65;1.42;;;;;;;-148.56;100.00;61375.16;4960466;28;20030;-33
2021/05/03 01:44:57;;;;;;;2.67;1.50;;;;;;;-148.56;100.00;61375.16;4964333;28;20035;-30
2021/05/03 01:48:24;;;;;;;2.77;1.40;;;;;;;-148.56;100.00;61375.16;4966596;28;20154;-27
2021/05/03 01:51:48;;;;;;;1.77;1.23;;;;;;;-148.56;100.00;61375.16;4959085;28;20286;-28
2021/05/03 01:55:12;;;;;;;1.70;1.30;;;;;;;-148.56;100.00;61375.16;4963817;28;20046;-27
2021/05/03 01:58:36;;;;;;;2.30;1.42;;;;;;;-148.56;100.00;61375.16;4964212;28;20039;-28
2021/05/03 02:02:00;;;;;;;2.35;1.48;;;;;;;-148.56;100.00;61375.16;4953824;28;20086;-29
2021/05/03 02:05:25;;;;;;;1.90;1.35;;;;;;;-148.56;100.00;61375.16;4967557;28;20030;-30
2021/05/03 02:08:55;;;;;;;2.40;1.35;;;;;;;-148.56;100.00;61375.16;4949490;28;20038;-29
2021/05/03 02:12:18;;;;;;;4.18;1.30;;;;;;;-148.56;100.00;61375.16;4968554;28;20117;-33
2021/05/03 02:15:43;;;;;;;1.15;1.02;;;;;;;-148.56;100.00;61375.16;4965199;28;20505;-28
2021/05/03 02:19:07;;;;;;;2.10;1.35;;;;;;;-148.56;100.00;61375.16;4965128;28;20117;-28
2021/05/03 02:22:30;;;;;;;2.05;1.20;;;;;;;-148.56;100.00;61375.16;4957729;28;20034;-31
2021/05/03 02:25:54;;;;;;;1.80;1.10;;;;;;;-148.56;100.00;61375.16;4958441;28;20153;-32
2021/05/03 02:29:18;;;;;;;2.38;1.30;;;;;;;-148.56;100.00;61375.16;4956460;28;20042;-34
2021/05/03 02:32:42;;;;;;;1.73;1.05;;;;;;;-148.56;100.00;61375.16;4964775;28;20034;-31
2021/05/03 02:36:07;;;;;;;1.67;1.15;;;;;;;-148.56;100.00;61375.16;4965254;28;20084;-33
2021/05/03 02:39:31;;;;;;;1.98;1.10;;;;;;;-148.56;100.00;61375.16;4949717;28;20046;-32
2021/05/03 02:42:56;;;;;;;1.52;0.90;;;;;;;-148.56;100.00;61375.16;4966725;28;20085;-32
2021/05/03 02:46:20;;;;;;;1.77;1.05;;;;;;;-148.56;100.00;61375.16;4950806;28;20160;-31
2021/05/03 02:49:44;;;;;;;2.38;1.13;;;;;;;-148.56;100.00;61375.16;4965766;28;20544;-31
2021/05/03 02:53:07;;;;;;;2.33;1.20;;;;;;;-148.56;100.00;61375.16;4965263;28;20034;-31
2021/05/03 02:56:31;;;;;;;2.05;1.00;;;;;;;-148.56;100.00;61375.16;4961206;28;20039;-30
2021/05/03 02:59:55;;;;;;;0.95;0.75;;;;;;;-148.56;100.00;61375.16;4955596;28;20030;-29
2021/05/03 03:03:19;;;;;;;1.60;1.20;;;;;;;-148.56;100.00;61375.16;4963024;28;20039;-33
2021/05/03 03:06:43;;;;;;;1.17;1.02;;;;;;;-148.56;100.00;61375.16;4956499;28;20620;-34
2021/05/03 03:10:07;;;;;;;1.40;1.10;;;;;;;-148.56;100.00;61375.16;4957652;28;20513;-30
2021/05/03 03:13:31;;;;;;;1.55;1.10;;;;;;;-148.56;100.00;61375.16;4962890;28;20608;-32
2021/05/03 03:16:55;;;;;;;0.82;0.80;;;;;;;-148.56;100.00;61375.16;4964375;28;20137;-32
2021/05/03 03:20:19;;;;;;;1.80;1.10;;;;;;;-148.56;100.00;61375.16;4959633;28;20038;-31
2021/05/03 03:23:43;;;;;;;1.73;0.82;;;;;;;-148.56;100.00;61375.16;4959823;28;20034;-29
2021/05/03 03:27:07;;;;;;;1.20;1.10;;;;;;;-148.56;100.00;61375.16;4956253;28;20058;-34
2021/05/03 03:30:31;;;;;;;1.23;1.00;;;;;;;-148.56;100.00;61375.16;4974336;28;20049;-28
2021/05/03 03:33:55;;;;;;;2.30;0.90;;;;;;;-148.56;100.00;61375.16;4963255;28;20103;-30
2021/05/03 03:37:19;;;;;;;2.25;1.33;;;;;;;-148.56;100.00;61375.16;4958762;28;20640;-30
2021/05/03 03:40:44;;;;;;;1.17;0.90;;;;;;;-148.56;100.00;61375.16;4951769;28;20035;-32
2021/05/03 03:44:09;;;;;;;1.58;1.00;;;;;;;-148.56;100.00;61375.16;4966526;28;20042;-34
2021/05/03 03:47:33;;;;;;;2.10;1.10;;;;;;;-148.56;100.00;61375.16;4959726;28;20702;-36
2021/05/03 03:50:57;;;;;;;5.45;1.10;;;;;;;-148.56;100.00;61375.16;4969138;28;20034;-33
2021/05/03 03:54:21;;;;;;;1.85;1.00;;;;;;;-148.56;100.00;61375.16;4961455;28;20029;-34
2021/05/03 03:57:44;;;;;;;1.48;1.38;;;;;;;-148.56;100.00;61375.16;4959290;28;20088;-32
2021/05/03 04:01:09;;;;;;;5.07;1.15;;;;;;;-148.56;100.00;61375.16;4959407;28;20165;-27
2021/05/03 04:04:39;;;;;;;1.25;1.00;;;;;;;-148.56;100.00;61375.16;4976978;28;20030;-31
2021/05/03 04:08:16;;;;;;;1.55;1.00;;;;;;;-148.56;100.00;61375.16;4957225;28;20030;-31
2021/05/03 04:26:46;;;;;;;1.17;0.90;;;;;;;-148.56;100.00;61375.16;4935587;28;20039;-32
2021/05/03 04:30:10;;;;;;;1.23;0.80;;;;;;;-148.56;100.00;61375.16;4960835;28;20665;-27
2021/05/03 04:33:34;;;;;;;1.52;0.90;;;;;;;-148.56;100.00;61375.16;4953692;28;20117;-28
2021/05/03 04:36:58;;;;;;;2.45;0.90;;;;;;;-148.56;100.00;61375.16;4974401;28;20082;-30
2021/05/03 04:40:22;;;;;;;1.33;1.08;;;;;;;-148.56;100.00;61375.16;4955940;28;20026;-29
2021/05/03 04:43:46;;;;;;;1.98;1.10;;;;;;;-148.56;100.00;61375.16;4963202;28;20030;-35
2021/05/03 04:47:10;;;;;;;1.10;0.80;;;;;;;-148.56;100.00;61375.16;4958817;28;21084;-33
2021/05/03 04:50:34;;;;;;;0.70;0.70;;;;;;;-148.56;100.00;61375.16;4958886;28;20687;-31
2021/05/03 04:53:57;;;;;;;1.02;0.80;;;;;;;-148.56;100.00;61375.16;4963432;28;20045;-30
2021/05/03 04:57:21;;;;;;;0.98;0.88;;;;;;;-148.56;100.00;61375.16;4969136;28;20520;-30
2021/05/03 05:00:45;;;;;;;0.65;0.60;;;;;;;-148.56;100.00;61375.16;4965292;28;20046;-30
2021/05/03 05:04:09;;;;;;;1.13;0.80;;;;;;;-148.56;100.00;61375.16;4963195;28;20039;-32
2021/05/03 05:07:33;;;;;;;0.93;0.65;;;;;;;-148.56;100.00;61375.16;4959044;28;20045;-31
2021/05/03 05:10:57;;;;;;;1.05;0.75;;;;;;;-148.56;100.00;61375.16;4958803;28;20039;-30
2021/05/03 05:14:21;;;;;;;1.58;1.00;;;;;;;-148.56;100.00;61375.16;4951944;28;20035;-32
2021/05/03 05:17:45;;;;;;;0.63;0.50;;;;;;;-148.56;100.00;61375.16;4950667;28;20031;-29
2021/05/03 05:21:09;;;;;;;2.08;1.05;;;;;;;-148.56;100.00;61375.16;4959387;28;20041;-28
2021/05/03 05:24:34;;;;;;;1.27;0.80;;;;;;;-148.56;100.00;61375.16;4953235;28;20030;-30
2021/05/03 05:27:58;;;;;;;0.55;0.52;;;;;;;-148.56;100.00;61375.16;4966029;28;20057;-31
2021/05/03 05:31:22;;;;;;;0.70;0.60;;;;;;;-148.56;100.00;61375.16;4962659;28;20193;-32
2021/05/03 05:34:46;;;;;;;0.50;0.50;;;;;;;-148.56;100.00;61375.16;4963949;28;20026;-30
2021/05/03 05:38:10;;;;;;;1.15;0.73;;;;;;;-148.56;100.00;61375.16;4958095;28;20026;-24
2021/05/03 05:41:34;;;;;;;2.78;0.90;;;;;;;-148.56;100.00;61375.16;4966180;28;20039;-30
2021/05/03 05:44:58;;;;;;;0.88;0.60;;;;;;;-148.56;100.00;61375.16;4958765;28;20778;-29
2021/05/03 05:48:22;;;;;;;0.68;0.60;;;;;;;-148.56;100.00;61375.16;4956847;28;20072;-27
2021/05/03 05:51:46;;;;;;;0.77;0.70;;;;;;;-148.56;100.00;61375.16;4962549;28;20030;-30
2021/05/03 05:55:10;;;;;;;2.22;0.60;;;;;;;-148.56;100.00;61375.16;4960520;28;20031;-28
2021/05/03 05:58:34;;;;;;;1.00;0.70;;;;;;;-148.56;100.00;61375.16;4963548;28;21700;-28
2021/05/03 06:01:59;;;;;;;2.30;0.82;;;;;;;-148.56;100.00;61375.16;4975875;28;20061;-32
2021/05/03 06:05:24;;;;;;;2.58;0.90;;;;;;;-148.56;100.00;61375.16;4962202;28;20034;-30
2021/05/03 06:08:48;;;;;;;1.20;0.70;;;;;;;-148.56;100.00;61375.16;4946605;28;20030;-30
2021/05/03 06:12:12;;;;;;;1.77;1.00;;;;;;;-148.56;100.00;61375.16;4964877;28;20058;-32
2021/05/03 06:15:36;;;;;;;3.25;1.30;;;;;;;-148.56;100.00;61375.16;4976292;28;20065;-30
2021/05/03 06:19:00;;;;;;;2.90;1.50;;;;;;;-148.56;100.00;61375.16;4958410;28;20515;-31
2021/05/03 06:22:25;;;;;;;2.00;1.23;;;;;;;-148.56;100.00;61375.16;4953948;28;20030;-29
2021/05/03 06:25:48;;;;;;;1.40;1.10;;;;;;;-148.56;100.00;61375.16;4952510;28;20913;-30
2021/05/03 06:29:12;;;;;;;6.40;1.00;;;;;;;-148.56;100.00;61375.16;4953710;28;20053;-30
2021/05/03 06:32:36;;;;;;;6.55;0.98;;;;;;;-148.56;100.00;61375.16;4956929;28;20642;-31
2021/05/03 06:36:00;;;;;;;9.10;1.67;;;;;;;-148.56;100.00;61375.16;4955877;28;20039;-32
2021/05/03 06:39:24;;;;;;;9.10;1.50;;;;;;;-148.56;100.00;61375.16;4952140;28;20658;-31
2021/05/03 06:42:49;;;;;;;4.80;1.38;;;;;;;-148.56;100.00;61375.16;4956161;28;20074;-31
2021/05/03 06:46:13;;;;;;;3.92;2.30;;;;;;;-148.56;100.00;61375.16;4951250;28;20035;-31
2021/05/03 06:49:37;;;;;;;2.78;2.30;;;;;;;-148.56;100.00;61375.16;4955969;28;20031;-30
2021/05/03 06:53:01;;;;;;;4.43;2.95;;;;;;;-148.56;100.00;61375.16;4955575;28;20733;-29
2021/05/03 06:56:24;;;;;;;8.70;3.00;;;;;;;-148.56;100.00;61375.16;4955673;28;20069;-28
2021/05/03 06:59:49;;;;;;;3.35;2.70;;;;;;;-148.56;100.00;61375.16;4955545;28;20027;-26
2021/05/03 07:03:13;;;;;;;4.18;2.17;;;;;;;-148.56;100.00;61375.16;4963512;28;20062;-29
2021/05/03 07:06:37;;;;;;;5.78;2.25;;;;;;;-148.56;100.00;61375.16;4952414;28;20104;-28
2021/05/03 07:10:01;;;;;;;7.22;2.25;;;;;;;-148.56;100.00;61375.16;4951647;28;20287;-32
2021/05/03 07:13:25;;;;;;;5.40;2.60;;;;;;;-148.56;100.00;61375.16;4962193;28;20097;-32
2021/05/03 07:16:49;;;;;;;5.88;2.35;;;;;;;-148.56;100.00;61375.16;4964835;28;20097;-31
2021/05/03 07:20:13;;;;;;;4.47;2.17;;;;;;;-148.56;100.00;61375.16;4963425;28;20026;-27
2021/05/03 07:23:38;;;;;;;3.75;2.33;;;;;;;-148.56;100.00;61375.16;4959192;28;20038;-29
2021/05/03 07:27:02;;;;;;;3.40;2.33;;;;;;;-148.56;100.00;61375.16;4962433;28;20030;-31
2021/05/03 07:30:26;;;;;;;3.83;2.40;;;;;;;-148.56;100.00;61375.16;4951638;28;20035;-29
2021/05/03 07:33:50;;;;;;;2.47;1.80;;;;;;;-148.56;100.00;61375.16;4944694;28;20075;-30
2021/05/03 07:37:14;;;;;;;4.43;2.20;;;;;;;-148.56;100.00;61375.16;4949795;28;20536;-31
2021/05/03 07:40:39;;;;;;;5.78;2.40;;;;;;;-148.56;100.00;61375.16;4961557;28;20034;-27
2021/05/03 07:44:03;;;;;;;4.38;2.40;;;;;;;-148.56;100.00;61375.16;4958033;28;20050;-30
2021/05/03 07:47:27;;;;;;;4.18;1.85;;;;;;;-148.56;100.00;61375.16;4963830;28;20492;-31
2021/05/03 07:50:51;;;;;;;2.50;2.30;;;;;;;-148.56;100.00;61375.16;4961651;28;20023;-31
2021/05/03 07:54:15;;;;;;;3.95;2.47;;;;;;;-148.56;100.00;61375.16;4963318;28;20050;-29
2021/05/03 07:57:40;;;;;;;2.72;2.30;;;;;;;-148.56;100.00;61375.16;4962401;28;20125;-29
2021/05/03 08:01:04;;;;;;;3.97;2.35;;;;;;;-148.56;100.00;61375.16;4964176;28;20162;-29
2021/05/03 08:04:28;;;;;;;2.72;2.20;;;;;;;-148.56;100.00;61375.16;4963824;28;20022;-28
2021/05/03 08:07:52;;;;;;;4.07;2.53;;;;;;;-148.56;100.00;61375.16;4961508;28;20034;-30
2021/05/03 08:11:16;;;;;;;3.88;1.98;;;;;;;-148.56;100.00;61375.16;4959694;28;20027;-30
2021/05/03 08:14:40;;;;;;;8.80;4.82;;;;;;;-148.56;100.00;61375.16;4959178;28;23133;-25
2021/05/03 08:18:04;;;;;;;8.43;3.13;;;;;;;-148.56;100.00;61375.16;4949509;28;20562;-31
2021/05/03 08:21:28;;;;;;;4.30;2.92;;;;;;;-148.56;100.00;61375.16;4958718;28;20117;-31
2021/05/03 08:24:54;;;;;;;3.88;2.97;;;;;;;-148.56;100.00;61375.16;4981341;28;20050;-30
2021/05/03 08:28:18;;;;;;;3.47;2.20;;;;;;;-148.56;100.00;61375.16;4954549;28;20050;-29
2021/05/03 08:31:42;;;;;;;2.67;2.13;;;;;;;-148.56;100.00;61375.16;4967558;28;20045;-29
2021/05/03 08:35:06;;;;;;;3.22;1.98;;;;;;;-148.56;100.00;61375.16;4948018;28;20023;-30
2021/05/03 08:38:30;;;;;;;4.78;1.85;;;;;;;-148.56;100.00;61375.16;4960552;28;20957;-32
2021/05/03 08:41:57;;;;;;;3.17;1.85;;;;;;;-148.56;100.00;61375.16;4954650;28;20046;-28
2021/05/03 08:45:21;;;;;;;2.17;1.50;;;;;;;-148.56;100.00;61375.16;4965560;28;20041;-29
2021/05/03 08:49:15;;;;;;;3.22;1.75;;;;;;;-148.56;100.00;61375.16;4979097;28;20864;-31
2021/05/03 08:52:40;;;;;;;2.67;1.52;;;;;;;-148.56;100.00;61375.16;4956113;28;20086;-27
2021/05/03 08:56:04;;;;;;;3.03;1.50;;;;;;;-148.56;100.00;61375.16;4960424;28;20085;-29
2021/05/03 08:59:28;;;;;;;8.73;1.30;;;;;;;-148.56;100.00;61375.16;4959478;28;20057;-30
2021/05/03 09:02:52;;;;;;;5.97;2.58;;;;;;;-148.56;100.00;61375.16;4951374;28;20026;-29
2021/05/03 09:06:16;;;;;;;4.35;2.25;;;;;;;-148.56;100.00;61375.16;4953905;28;20042;-27
2021/05/03 09:09:40;;;;;;;3.72;2.35;;;;;;;-148.56;100.00;61375.16;4969602;28;20044;-29
2021/05/03 09:13:08;;;;;;;4.70;2.25;;;;;;;-148.56;100.00;61375.16;4970330;28;20125;-30
2021/05/03 09:16:32;;;;;;;10.90;2.90;;;;;;;-148.56;100.00;61375.16;4969784;28;20053;-32
2021/05/03 09:19:56;;;;;;;7.38;2.90;;;;;;;-148.56;100.00;61375.16;4971605;28;20400;-32
2021/05/03 09:23:54;;;;;;;6.63;2.40;;;;;;;-148.56;100.00;61375.16;4967586;28;20037;-32
2021/05/03 09:27:38;;;;;;;18.15;2.92;;;;;;;-148.56;100.00;61375.16;4969116;28;20030;-30
2021/05/03 09:31:02;;;;;;;9.70;2.40;;;;;;;-148.56;100.00;61375.16;4965446;28;20026;-26
2021/05/03 09:34:26;;;;;;;6.55;1.88;;;;;;;-148.56;100.00;61375.16;4965708;28;20116;-29
2021/05/03 09:37:50;;;;;;;3.67;1.55;;;;;;;-148.56;100.00;61375.16;4970502;28;20077;-29
2021/05/03 09:41:15;;;;;;;5.65;1.92;;;;;;;-148.56;100.00;61375.16;4965529;28;20590;-30
2021/05/03 09:44:49;;;;;;;10.75;1.98;;;;;;;-148.56;100.00;61375.16;4968343;28;20512;-30
2021/05/03 09:48:13;;;;;;;6.03;1.80;;;;;;;-148.56;100.00;61375.16;4981483;28;20520;-29
2021/05/03 09:51:38;;;;;;;2.88;1.33;;;;;;;-148.56;100.00;61375.16;4977096;28;20569;-29
2021/05/03 09:55:25;;;;;;;2.17;1.25;;;;;;;-148.56;100.00;61375.16;4970718;28;20030;-27
2021/05/03 09:59:05;;;;;;;4.65;1.20;;;;;;;-148.56;100.00;61375.16;4966904;28;20031;-31
2021/05/03 10:02:31;;;;;;;1.67;1.13;;;;;;;-148.56;100.00;61375.16;4967764;28;20070;-32
2021/05/03 10:06:06;;;;;;;2.58;1.25;;;;;;;-148.56;100.00;61375.16;4966327;28;20034;-29
2021/05/03 10:09:31;;;;;;;5.53;1.50;;;;;;;-148.56;100.00;61375.16;4965982;28;20034;-29
2021/05/03 10:12:55;;;;;;;3.47;1.70;;;;;;;-148.56;100.00;61375.16;4966903;28;20034;-25
2021/05/03 10:16:19;;;;;;;3.97;1.63;;;;;;;-148.56;100.00;61375.16;4963517;28;20057;-29
2021/05/03 10:19:43;;;;;;;4.55;1.42;;;;;;;-148.56;100.00;61375.16;4964718;28;20096;-28
2021/05/03 10:23:08;;;;;;;3.15;1.50;;;;;;;-148.56;100.00;61375.16;4972325;28;20026;-31
2021/05/03 10:26:32;;;;;;;4.35;1.30;;;;;;;-148.56;100.00;61375.16;4955404;28;20070;-30
2021/05/03 10:30:12;;;;;;;2.80;1.58;;;;;;;-148.56;100.00;61375.16;4963202;28;20045;-29
2021/05/03 10:33:37;;;;;;;2.83;1.50;;;;;;;-148.56;100.00;61375.16;4966587;28;20121;-30
2021/05/03 10:37:01;;;;;;;4.15;1.20;;;;;;;-148.56;100.00;61375.16;4968726;28;20030;-30
2021/05/03 10:40:26;;;;;;;2.47;1.40;;;;;;;-148.56;100.00;61375.16;4966147;28;20998;-30
2021/05/03 10:44:18;;;;;;;3.67;1.70;;;;;;;-148.56;100.00;61375.16;4964159;28;20076;-29
2021/05/03 10:47:49;;;;;;;4.97;1.55;;;;;;;-148.56;100.00;61375.16;4954585;28;20034;-30
2021/05/03 10:51:35;;;;;;;2.28;1.55;;;;;;;-148.56;100.00;61375.16;4955073;28;20053;-30
2021/05/03 10:55:14;;;;;;;7.60;1.92;;;;;;;-148.56;100.00;61375.16;4964959;28;20058;-26
2021/05/03 10:58:53;;;;;;;6.85;2.60;;;;;;;-148.56;100.00;61375.16;4967799;28;20038;-31
2021/05/03 11:02:17;;;;;;;5.00;1.52;;;;;;;-148.56;100.00;61375.16;4963139;28;20041;-33
2021/05/03 11:06:01;;;;;;;2.72;1.40;;;;;;;-148.56;100.00;61375.16;4966806;28;20034;-29
2021/05/03 11:09:28;;;;;;;4.78;1.63;;;;;;;-148.56;100.00;61375.16;4965668;28;20145;-32
2021/05/03 11:12:53;;;;;;;7.38;1.95;;;;;;;-148.56;100.00;61375.16;4966232;28;20034;-33
2021/05/03 11:16:32;;;;;;;6.82;2.28;;;;;;;-148.56;100.00;61375.16;4967064;28;20062;-28
2021/05/03 11:23:38;;;;;;;4.95;2.40;;;;;;;-148.56;100.00;61375.16;4968326;28;20034;-32
2021/05/03 11:30:40;;;;;;;5.30;2.80;;;;;;;-148.56;100.00;61375.16;4962604;28;20036;-30
2021/05/03 11:34:11;;;;;;;4.65;2.20;;;;;;;-148.56;100.00;61375.16;4959691;28;20642;-29
2021/05/03 11:37:41;;;;;;;8.70;2.60;;;;;;;-148.56;100.00;61375.16;4956724;28;20096;-32
2021/05/03 11:44:54;;;;;;;4.35;2.00;;;;;;;-148.56;100.00;61375.16;4959180;28;20557;-32
2021/05/03 11:48:32;;;;;;;5.45;2.30;;;;;;;-148.56;100.00;61375.16;4958500;28;20272;-31
2021/05/03 11:52:00;;;;;;;4.13;2.00;;;;;;;-148.56;100.00;61375.16;4954894;28;20085;-31
2021/05/03 11:55:28;;;;;;;4.75;2.15;;;;;;;-148.56;100.00;61375.16;4955280;28;20049;-30
2021/05/03 11:58:52;;;;;;;6.80;2.40;;;;;;;-148.56;100.00;61375.16;4954756;28;20512;-27
2021/05/03 12:02:19;;;;;;;8.57;2.90;;;;;;;-148.56;100.00;61375.16;4957343;28;20054;-30
2021/05/03 12:05:45;;;;;;;10.55;3.58;;;;;;;-148.56;100.00;61375.16;4972477;28;20058;-29
2021/05/03 12:09:10;;;;;;;13.23;3.80;;;;;;;-148.56;100.00;61375.16;4956891;28;20030;-29
2021/05/03 12:12:35;;;;;;;10.13;3.67;;;;;;;-148.56;100.00;61375.16;4954799;28;20565;-27
2021/05/03 12:15:59;;;;;;;11.73;3.50;;;;;;;-148.56;100.00;61375.16;4958848;28;20023;-29
2021/05/03 12:19:23;;;;;;;10.45;3.03;;;;;;;-148.56;100.00;61375.16;4959332;28;20085;-29
2021/05/03 12:22:58;;;;;;;9.30;3.53;;;;;;;-148.56;100.00;61375.16;4967376;28;20359;-26
2021/05/03 12:26:26;;;;;;;9.23;3.40;;;;;;;-148.56;100.00;61375.16;4969212;28;20033;-30
2021/05/03 12:29:50;;;;;;;12.85;3.10;;;;;;;-148.56;100.00;61375.16;4954495;28;20055;-32
2021/05/03 12:33:18;;;;;;;16.27;2.40;;;;;;;-148.56;100.00;61375.16;4967645;28;20023;-28
2021/05/03 12:37:01;;;;;;;33.08;3.60;;;;;;;-148.56;100.00;61375.16;4954879;28;20069;-29
2021/05/03 12:40:25;;;;;;;14.07;3.20;;;;;;;-148.56;100.00;61375.16;4947259;28;20503;-29
2021/05/03 12:43:57;;;;;;;20.27;3.85;;;;;;;-148.56;100.00;61375.16;4964392;28;20464;-33
2021/05/03 12:47:55;;;;;;;10.80;3.28;;;;;;;-148.56;100.00;61375.16;4965150;28;20033;-31
2021/05/03 12:58:26;;;;;;;13.10;3.03;;;;;;;-148.56;100.00;61375.16;4967390;28;20096;-33
2021/05/03 13:02:02;;;;;;;11.32;2.75;;;;;;;-148.56;100.00;61375.16;4964882;28;20037;-31
2021/05/03 13:05:38;;;;;;;13.15;2.63;;;;;;;-148.56;100.00;61375.16;4970527;28;20112;-31
2021/05/03 13:09:30;;;;;;;7.03;2.67;;;;;;;-148.56;100.00;61375.16;4964261;28;20381;-29
2021/05/03 13:24:43;;;;;;;8.40;2.47;;;;;;;-148.56;100.00;61375.16;4967703;28;20050;-30
2021/05/03 13:28:17;;;;;;;8.23;2.60;;;;;;;-148.56;100.00;61375.16;4968692;28;20034;-29
2021/05/03 13:31:42;;;;;;;7.72;2.88;;;;;;;-148.56;100.00;61375.16;4970200;28;20065;-32
2021/05/03 13:35:06;;;;;;;6.88;2.28;;;;;;;-148.56;100.00;61375.16;4976940;28;20038;-31
2021/05/03 13:38:30;;;;;;;8.13;2.35;;;;;;;-148.56;100.00;61375.16;4967781;28;20572;-32
2021/05/03 13:41:54;;;;;;;6.47;2.40;;;;;;;-148.56;100.00;61375.16;4972229;28;20101;-31
2021/05/03 13:45:22;;;;;;;6.82;2.70;;;;;;;-148.56;100.00;61375.16;4963575;28;20149;-32
2021/05/03 13:48:46;;;;;;;4.20;2.20;;;;;;;-148.56;100.00;61375.16;4982053;28;20571;-29
2021/05/03 13:52:10;;;;;;;5.45;2.30;;;;;;;-148.56;100.00;61375.16;4963295;28;20026;-30
2021/05/03 13:55:34;;;;;;;6.70;2.13;;;;;;;-148.56;100.00;61375.16;4972940;28;20039;-31
2021/05/03 13:58:58;;;;;;;7.32;2.90;;;;;;;-148.56;100.00;61375.16;4967404;28;20027;-30
2021/05/03 14:02:22;;;;;;;4.80;2.05;;;;;;;-148.56;100.00;61375.16;4970523;28;20049;-30
2021/05/03 14:05:46;;;;;;;5.88;2.08;;;;;;;-148.56;100.00;61375.16;4966686;28;20034;-31
2021/05/03 14:09:10;;;;;;;4.85;1.80;;;;;;;-148.56;100.00;61375.16;4968647;28;20081;-29
2021/05/03 14:12:34;;;;;;;4.97;2.05;;;;;;;-148.56;100.00;61375.16;4967686;28;20092;-29
2021/05/03 14:15:58;;;;;;;6.57;2.10;;;;;;;-148.56;100.00;61375.16;4964667;28;20034;-30
2021/05/03 14:19:27;;;;;;;4.05;1.98;;;;;;;-148.56;100.00;61375.16;4981654;28;20550;-30
2021/05/03 14:22:51;;;;;;;4.30;1.73;;;;;;;-148.56;100.00;61375.16;4969015;28;20054;-30
2021/05/03 14:26:18;;;;;;;4.57;1.77;;;;;;;-148.56;100.00;61375.16;4979332;28;20516;-29
2021/05/03 14:29:55;;;;;;;3.83;1.88;;;;;;;-148.56;100.00;61375.16;4964110;28;20687;-29
2021/05/03 14:33:21;;;;;;;5.22;2.10;;;;;;;-148.56;100.00;61375.16;4964599;28;20030;-28
2021/05/03 14:36:45;;;;;;;3.63;1.88;;;;;;;-148.56;100.00;61375.16;4971087;28;20480;-28
2021/05/03 14:40:09;;;;;;;7.45;1.90;;;;;;;-148.56;100.00;61375.16;4965061;28;20201;-29
2021/05/03 14:43:33;;;;;;;6.22;1.75;;;;;;;-148.56;100.00;61375.16;4968527;28;20050;-31
2021/05/03 14:47:01;;;;;;;3.45;1.58;;;;;;;-148.56;100.00;61375.16;4966941;28;20586;-28
2021/05/03 14:53:57;;;;;;;3.70;1.63;;;;;;;-148.56;100.00;61375.16;4969922;28;20034;-28
2021/05/03 14:57:21;;;;;;;5.00;1.92;;;;;;;-148.56;100.00;61375.16;4965985;28;20137;-29
2021/05/03 15:00:46;;;;;;;2.67;1.45;;;;;;;-148.56;100.00;61375.16;4984562;28;20074;-31
2021/05/03 15:04:10;;;;;;;3.40;1.48;;;;;;;-148.56;100.00;61375.16;4967724;28;20101;-41
2021/05/03 15:07:34;;;;;;;3.22;1.63;;;;;;;-148.56;100.00;61375.16;4981117;28;20436;-31
2021/05/03 15:10:58;;;;;;;2.65;1.58;;;;;;;-148.56;100.00;61375.16;4959421;28;20027;-28
2021/05/03 15:21:36;;;;;;;3.70;1.58;;;;;;;-148.56;100.00;61375.16;4969773;28;20121;-33
2021/05/03 15:25:03;;;;;;;4.70;1.55;;;;;;;-148.56;100.00;61375.16;4966272;28;20030;-33
2021/05/03 15:35:39;;;;;;;2.90;1.27;;;;;;;-148.56;100.00;61375.16;4962349;28;20124;-31
2021/05/03 15:39:03;;;;;;;2.88;1.52;;;;;;;-148.56;100.00;61375.16;4965798;28;20027;-27
2021/05/03 15:42:28;;;;;;;4.03;1.50;;;;;;;-148.56;100.00;61375.16;4966820;28;20097;-30
2021/05/03 15:45:53;;;;;;;2.13;1.08;;;;;;;-148.56;100.00;61375.16;4965292;28;20061;-30
2021/05/03 15:49:17;;;;;;;2.63;1.33;;;;;;;-148.56;100.00;61375.16;4966505;28;20093;-30
2021/05/03 15:52:41;;;;;;;2.45;1.20;;;;;;;-148.56;100.00;61375.16;4966946;28;20525;-29
2021/05/03 15:56:05;;;;;;;3.30;1.30;;;;;;;-148.56;100.00;61375.16;4968325;28;20497;-32
2021/05/03 15:59:29;;;;;;;2.63;1.10;;;;;;;-148.56;100.00;61375.16;4966051;28;20505;-29
2021/05/03 16:02:53;;;;;;;3.05;1.50;;;;;;;-148.56;100.00;61375.16;4967884;28;20093;-31
2021/05/03 16:06:17;;;;;;;2.90;1.48;;;;;;;-148.56;100.00;61375.16;4981074;28;20066;-29
2021/05/03 16:09:41;;;;;;;3.50;1.27;;;;;;;-148.56;100.00;61375.16;4964345;28;20031;-28
2021/05/03 16:13:05;;;;;;;2.35;1.40;;;;;;;-148.56;100.00;61375.16;4965418;28;20481;-26
2021/05/03 16:16:29;;;;;;;2.60;1.40;;;;;;;-148.56;100.00;61375.16;4965316;28;20089;-29
2021/05/03 16:19:53;;;;;;;2.10;1.00;;;;;;;-148.56;100.00;61375.16;4968356;28;20038;-30
2021/05/03 16:23:17;;;;;;;2.88;1.30;;;;;;;-148.56;100.00;61375.16;4965103;28;20057;-31
2021/05/03 16:26:41;;;;;;;1.98;1.00;;;;;;;-148.56;100.00;61375.16;4969181;28;20066;-30
2021/05/03 16:30:05;;;;;;;2.20;0.90;;;;;;;-148.56;100.00;61375.16;4966141;28;20145;-30
2021/05/03 16:33:29;;;;;;;3.38;0.98;;;;;;;-148.56;100.00;61375.16;4962541;28;20897;-29
2021/05/03 16:36:53;;;;;;;2.22;1.17;;;;;;;-148.56;100.00;61375.16;4968263;28;20047;-30
2021/05/03 16:40:17;;;;;;;2.28;1.02;;;;;;;-148.56;100.00;61375.16;4964842;28;20749;-30